sensor_id;sensor_type;location;lat;lon;timestamp;P1;durP1;ratioP1;P2;durP2;ratioP2
67902;SDS011;54708;43.612;1.568;2023-02-15T00:01:41;10.32;;;6.18;;
67902;SDS011;54708;43.612;1.568;2023-02-15T00:04:07;13.02;;;6.15;;
67902;SDS011;54708;43.612;1.568;2023-02-15T00:06:34;13.82;;;6.65;;
67902;SDS011;54708;43.612;1.568;2023-02-15T00:08:59;12.15;;;7.10;;
67902;SDS011;54708;43.612;1.568;2023-02-15T00:11:25;11.38;;;7.32;;
67902;SDS011;54708;43.612;1.568;2023-02-15T00:14:10;8.70;;;6.78;;
67902;SDS011;54708;43.612;1.568;2023-02-15T00:16:38;17.17;;;7.55;;
67902;SDS011;54708;43.612;1.568;2023-02-15T00:19:04;9.90;;;6.32;;
67902;SDS011;54708;43.612;1.568;2023-02-15T00:21:30;11.75;;;6.82;;
67902;SDS011;54708;43.612;1.568;2023-02-15T00:23:57;9.13;;;7.18;;
67902;SDS011;54708;43.612;1.568;2023-02-15T00:26:24;12.35;;;6.55;;
67902;SDS011;54708;43.612;1.568;2023-02-15T00:28:49;12.13;;;6.72;;
67902;SDS011;54708;43.612;1.568;2023-02-15T00:31:15;13.32;;;6.40;;
67902;SDS011;54708;43.612;1.568;2023-02-15T00:33:40;14.70;;;6.97;;
67902;SDS011;54708;43.612;1.568;2023-02-15T00:36:07;10.27;;;6.00;;
67902;SDS011;54708;43.612;1.568;2023-02-15T00:38:33;9.13;;;6.88;;
67902;SDS011;54708;43.612;1.568;2023-02-15T00:41:00;11.63;;;6.10;;
67902;SDS011;54708;43.612;1.568;2023-02-15T00:43:28;13.85;;;8.13;;
67902;SDS011;54708;43.612;1.568;2023-02-15T00:45:54;10.45;;;6.32;;
67902;SDS011;54708;43.612;1.568;2023-02-15T00:48:20;13.68;;;7.00;;
67902;SDS011;54708;43.612;1.568;2023-02-15T00:50:49;12.07;;;7.50;;
67902;SDS011;54708;43.612;1.568;2023-02-15T00:53:16;11.13;;;7.32;;
67902;SDS011;54708;43.612;1.568;2023-02-15T00:55:42;10.05;;;6.70;;
67902;SDS011;54708;43.612;1.568;2023-02-15T00:58:08;11.85;;;5.88;;
67902;SDS011;54708;43.612;1.568;2023-02-15T01:00:35;14.18;;;7.45;;
67902;SDS011;54708;43.612;1.568;2023-02-15T01:03:00;10.30;;;7.07;;
67902;SDS011;54708;43.612;1.568;2023-02-15T01:05:26;10.63;;;6.72;;
67902;SDS011;54708;43.612;1.568;2023-02-15T01:07:51;10.25;;;7.20;;
67902;SDS011;54708;43.612;1.568;2023-02-15T01:10:17;9.32;;;6.88;;
67902;SDS011;54708;43.612;1.568;2023-02-15T01:12:42;9.25;;;6.53;;
67902;SDS011;54708;43.612;1.568;2023-02-15T01:15:08;8.75;;;6.80;;
67902;SDS011;54708;43.612;1.568;2023-02-15T01:17:34;10.35;;;7.90;;
67902;SDS011;54708;43.612;1.568;2023-02-15T01:19:59;12.55;;;7.10;;
67902;SDS011;54708;43.612;1.568;2023-02-15T01:22:25;10.55;;;7.47;;
67902;SDS011;54708;43.612;1.568;2023-02-15T01:24:50;8.80;;;6.53;;
67902;SDS011;54708;43.612;1.568;2023-02-15T01:27:16;11.13;;;7.90;;
67902;SDS011;54708;43.612;1.568;2023-02-15T01:29:41;12.55;;;7.63;;
67902;SDS011;54708;43.612;1.568;2023-02-15T01:32:06;9.48;;;7.18;;
67902;SDS011;54708;43.612;1.568;2023-02-15T01:34:32;11.30;;;7.63;;
67902;SDS011;54708;43.612;1.568;2023-02-15T01:36:57;8.05;;;6.35;;
67902;SDS011;54708;43.612;1.568;2023-02-15T01:39:23;8.48;;;6.18;;
67902;SDS011;54708;43.612;1.568;2023-02-15T01:41:48;8.18;;;6.32;;
67902;SDS011;54708;43.612;1.568;2023-02-15T01:52:45;8.82;;;5.90;;
67902;SDS011;54708;43.612;1.568;2023-02-15T01:55:14;11.98;;;7.03;;
67902;SDS011;54708;43.612;1.568;2023-02-15T01:57:40;8.77;;;6.55;;
67902;SDS011;54708;43.612;1.568;2023-02-15T02:00:07;10.20;;;7.28;;
67902;SDS011;54708;43.612;1.568;2023-02-15T02:02:33;10.30;;;6.57;;
67902;SDS011;54708;43.612;1.568;2023-02-15T02:05:00;8.43;;;6.70;;
67902;SDS011;54708;43.612;1.568;2023-02-15T02:07:31;16.55;;;7.35;;
67902;SDS011;54708;43.612;1.568;2023-02-15T02:09:58;16.75;;;6.88;;
67902;SDS011;54708;43.612;1.568;2023-02-15T02:12:24;9.38;;;7.03;;
67902;SDS011;54708;43.612;1.568;2023-02-15T02:14:50;15.18;;;8.02;;
67902;SDS011;54708;43.612;1.568;2023-02-15T02:20:05;10.40;;;6.90;;
67902;SDS011;54708;43.612;1.568;2023-02-15T02:25:06;15.43;;;6.97;;
67902;SDS011;54708;43.612;1.568;2023-02-15T02:33:31;10.90;;;7.72;;
67902;SDS011;54708;43.612;1.568;2023-02-15T02:39:00;8.63;;;7.00;;
67902;SDS011;54708;43.612;1.568;2023-02-15T02:44:13;12.85;;;7.78;;
67902;SDS011;54708;43.612;1.568;2023-02-15T02:49:41;16.33;;;7.82;;
67902;SDS011;54708;43.612;1.568;2023-02-15T02:52:33;14.73;;;8.05;;
67902;SDS011;54708;43.612;1.568;2023-02-15T02:55:05;12.20;;;7.47;;
67902;SDS011;54708;43.612;1.568;2023-02-15T02:57:34;13.73;;;8.10;;
67902;SDS011;54708;43.612;1.568;2023-02-15T03:00:02;12.35;;;7.95;;
67902;SDS011;54708;43.612;1.568;2023-02-15T03:02:30;9.13;;;7.15;;
67902;SDS011;54708;43.612;1.568;2023-02-15T03:04:59;13.27;;;9.10;;
67902;SDS011;54708;43.612;1.568;2023-02-15T03:07:28;14.98;;;8.52;;
67902;SDS011;54708;43.612;1.568;2023-02-15T03:09:56;11.48;;;8.30;;
67902;SDS011;54708;43.612;1.568;2023-02-15T03:15:01;12.60;;;8.50;;
67902;SDS011;54708;43.612;1.568;2023-02-15T03:17:36;15.23;;;9.02;;
67902;SDS011;54708;43.612;1.568;2023-02-15T03:20:06;15.93;;;9.57;;
67902;SDS011;54708;43.612;1.568;2023-02-15T03:25:35;15.93;;;8.68;;
67902;SDS011;54708;43.612;1.568;2023-02-15T03:28:04;14.63;;;8.57;;
67902;SDS011;54708;43.612;1.568;2023-02-15T03:30:32;18.42;;;8.88;;
67902;SDS011;54708;43.612;1.568;2023-02-15T03:32:59;12.63;;;9.05;;
67902;SDS011;54708;43.612;1.568;2023-02-15T03:35:26;17.05;;;8.50;;
67902;SDS011;54708;43.612;1.568;2023-02-15T03:40:29;18.25;;;10.10;;
67902;SDS011;54708;43.612;1.568;2023-02-15T03:45:50;12.85;;;8.43;;
67902;SDS011;54708;43.612;1.568;2023-02-15T03:48:22;12.60;;;8.57;;
67902;SDS011;54708;43.612;1.568;2023-02-15T03:50:54;17.50;;;10.50;;
67902;SDS011;54708;43.612;1.568;2023-02-15T03:53:41;12.95;;;9.32;;
67902;SDS011;54708;43.612;1.568;2023-02-15T03:56:07;14.70;;;8.88;;
67902;SDS011;54708;43.612;1.568;2023-02-15T03:58:32;12.68;;;8.98;;
67902;SDS011;54708;43.612;1.568;2023-02-15T04:01:36;11.52;;;8.48;;
67902;SDS011;54708;43.612;1.568;2023-02-15T04:04:25;11.75;;;8.10;;
67902;SDS011;54708;43.612;1.568;2023-02-15T04:06:58;10.18;;;8.05;;
67902;SDS011;54708;43.612;1.568;2023-02-15T04:09:24;13.90;;;7.85;;
67902;SDS011;54708;43.612;1.568;2023-02-15T04:12:08;11.90;;;7.72;;
67902;SDS011;54708;43.612;1.568;2023-02-15T04:14:33;10.27;;;8.45;;
67902;SDS011;54708;43.612;1.568;2023-02-15T04:17:17;9.95;;;7.70;;
67902;SDS011;54708;43.612;1.568;2023-02-15T04:19:42;17.88;;;8.20;;
67902;SDS011;54708;43.612;1.568;2023-02-15T04:22:26;12.18;;;7.75;;
67902;SDS011;54708;43.612;1.568;2023-02-15T04:25:10;13.23;;;7.85;;
67902;SDS011;54708;43.612;1.568;2023-02-15T04:27:40;11.63;;;8.57;;
67902;SDS011;54708;43.612;1.568;2023-02-15T04:30:07;12.55;;;7.95;;
67902;SDS011;54708;43.612;1.568;2023-02-15T04:32:34;14.43;;;8.80;;
67902;SDS011;54708;43.612;1.568;2023-02-15T04:34:59;8.77;;;7.78;;
67902;SDS011;54708;43.612;1.568;2023-02-15T04:37:25;11.73;;;7.53;;
67902;SDS011;54708;43.612;1.568;2023-02-15T04:39:50;11.07;;;7.88;;
67902;SDS011;54708;43.612;1.568;2023-02-15T04:42:16;13.30;;;9.05;;
67902;SDS011;54708;43.612;1.568;2023-02-15T04:44:41;13.15;;;8.32;;
67902;SDS011;54708;43.612;1.568;2023-02-15T04:47:07;10.73;;;7.28;;
67902;SDS011;54708;43.612;1.568;2023-02-15T04:49:32;13.15;;;8.70;;
67902;SDS011;54708;43.612;1.568;2023-02-15T04:51:58;11.40;;;7.40;;
67902;SDS011;54708;43.612;1.568;2023-02-15T04:54:23;12.82;;;8.35;;
67902;SDS011;54708;43.612;1.568;2023-02-15T04:56:49;11.00;;;7.10;;
67902;SDS011;54708;43.612;1.568;2023-02-15T04:59:14;11.93;;;7.55;;
67902;SDS011;54708;43.612;1.568;2023-02-15T05:01:39;11.32;;;7.95;;
67902;SDS011;54708;43.612;1.568;2023-02-15T05:04:05;11.65;;;7.57;;
67902;SDS011;54708;43.612;1.568;2023-02-15T05:06:30;10.73;;;8.60;;
67902;SDS011;54708;43.612;1.568;2023-02-15T05:08:56;13.10;;;7.78;;
67902;SDS011;54708;43.612;1.568;2023-02-15T05:11:23;10.60;;;6.45;;
67902;SDS011;54708;43.612;1.568;2023-02-15T05:13:49;10.77;;;7.55;;
67902;SDS011;54708;43.612;1.568;2023-02-15T05:16:14;9.98;;;7.38;;
67902;SDS011;54708;43.612;1.568;2023-02-15T05:18:40;10.18;;;7.82;;
67902;SDS011;54708;43.612;1.568;2023-02-15T05:21:05;10.35;;;6.95;;
67902;SDS011;54708;43.612;1.568;2023-02-15T05:23:30;15.75;;;8.23;;
67902;SDS011;54708;43.612;1.568;2023-02-15T05:25:56;10.25;;;7.40;;
67902;SDS011;54708;43.612;1.568;2023-02-15T05:28:40;10.80;;;7.60;;
67902;SDS011;54708;43.612;1.568;2023-02-15T05:31:16;13.93;;;7.25;;
67902;SDS011;54708;43.612;1.568;2023-02-15T05:33:43;10.73;;;8.05;;
67902;SDS011;54708;43.612;1.568;2023-02-15T05:36:08;10.38;;;7.85;;
67902;SDS011;54708;43.612;1.568;2023-02-15T05:38:34;12.55;;;8.40;;
67902;SDS011;54708;43.612;1.568;2023-02-15T05:41:02;18.45;;;9.23;;
67902;SDS011;54708;43.612;1.568;2023-02-15T05:43:29;13.05;;;8.27;;
67902;SDS011;54708;43.612;1.568;2023-02-15T05:45:55;14.43;;;9.32;;
67902;SDS011;54708;43.612;1.568;2023-02-15T05:48:21;12.02;;;8.70;;
67902;SDS011;54708;43.612;1.568;2023-02-15T05:50:56;14.77;;;9.27;;
67902;SDS011;54708;43.612;1.568;2023-02-15T05:53:26;17.55;;;10.07;;
67902;SDS011;54708;43.612;1.568;2023-02-15T05:55:52;15.82;;;9.45;;
67902;SDS011;54708;43.612;1.568;2023-02-15T05:58:18;12.00;;;8.95;;
67902;SDS011;54708;43.612;1.568;2023-02-15T06:00:44;12.95;;;10.15;;
67902;SDS011;54708;43.612;1.568;2023-02-15T06:03:09;14.23;;;9.68;;
67902;SDS011;54708;43.612;1.568;2023-02-15T06:05:35;14.45;;;9.85;;
67902;SDS011;54708;43.612;1.568;2023-02-15T06:08:00;19.40;;;9.85;;
67902;SDS011;54708;43.612;1.568;2023-02-15T06:10:25;16.65;;;9.90;;
67902;SDS011;54708;43.612;1.568;2023-02-15T06:12:51;14.57;;;9.48;;
67902;SDS011;54708;43.612;1.568;2023-02-15T06:15:16;15.85;;;10.32;;
67902;SDS011;54708;43.612;1.568;2023-02-15T06:17:42;15.80;;;10.07;;
67902;SDS011;54708;43.612;1.568;2023-02-15T06:20:07;20.05;;;10.05;;
67902;SDS011;54708;43.612;1.568;2023-02-15T06:22:33;18.25;;;10.63;;
67902;SDS011;54708;43.612;1.568;2023-02-15T06:24:59;18.05;;;11.30;;
67902;SDS011;54708;43.612;1.568;2023-02-15T06:27:24;16.95;;;10.63;;
67902;SDS011;54708;43.612;1.568;2023-02-15T06:29:50;16.85;;;11.07;;
67902;SDS011;54708;43.612;1.568;2023-02-15T06:32:15;14.98;;;9.55;;
67902;SDS011;54708;43.612;1.568;2023-02-15T06:34:40;15.02;;;9.38;;
67902;SDS011;54708;43.612;1.568;2023-02-15T06:37:06;14.85;;;9.88;;
67902;SDS011;54708;43.612;1.568;2023-02-15T06:39:33;14.63;;;9.68;;
67902;SDS011;54708;43.612;1.568;2023-02-15T06:41:58;15.25;;;9.75;;
67902;SDS011;54708;43.612;1.568;2023-02-15T06:44:23;18.15;;;10.07;;
67902;SDS011;54708;43.612;1.568;2023-02-15T06:46:49;20.98;;;10.07;;
67902;SDS011;54708;43.612;1.568;2023-02-15T06:49:14;14.27;;;9.90;;
67902;SDS011;54708;43.612;1.568;2023-02-15T06:51:40;25.73;;;11.02;;
67902;SDS011;54708;43.612;1.568;2023-02-15T06:54:05;15.93;;;8.85;;
67902;SDS011;54708;43.612;1.568;2023-02-15T06:56:32;17.33;;;9.65;;
67902;SDS011;54708;43.612;1.568;2023-02-15T06:58:57;20.17;;;9.80;;
67902;SDS011;54708;43.612;1.568;2023-02-15T07:01:22;16.90;;;10.60;;
67902;SDS011;54708;43.612;1.568;2023-02-15T07:03:48;19.83;;;10.98;;
67902;SDS011;54708;43.612;1.568;2023-02-15T07:06:13;14.18;;;9.35;;
67902;SDS011;54708;43.612;1.568;2023-02-15T07:08:39;19.20;;;11.05;;
67902;SDS011;54708;43.612;1.568;2023-02-15T07:11:05;19.83;;;10.93;;
67902;SDS011;54708;43.612;1.568;2023-02-15T07:13:49;14.95;;;9.70;;
67902;SDS011;54708;43.612;1.568;2023-02-15T07:16:15;17.98;;;11.40;;
67902;SDS011;54708;43.612;1.568;2023-02-15T07:18:40;14.75;;;9.75;;
67902;SDS011;54708;43.612;1.568;2023-02-15T07:21:06;15.90;;;10.82;;
67902;SDS011;54708;43.612;1.568;2023-02-15T07:23:38;14.43;;;10.45;;
67902;SDS011;54708;43.612;1.568;2023-02-15T07:26:04;19.88;;;10.80;;
67902;SDS011;54708;43.612;1.568;2023-02-15T07:28:30;15.75;;;10.35;;
67902;SDS011;54708;43.612;1.568;2023-02-15T07:30:56;16.70;;;10.00;;
67902;SDS011;54708;43.612;1.568;2023-02-15T07:33:22;23.73;;;9.63;;
67902;SDS011;54708;43.612;1.568;2023-02-15T07:35:48;16.90;;;10.40;;
67902;SDS011;54708;43.612;1.568;2023-02-15T07:38:14;12.85;;;10.10;;
67902;SDS011;54708;43.612;1.568;2023-02-15T07:40:39;19.20;;;9.35;;
67902;SDS011;54708;43.612;1.568;2023-02-15T07:43:05;17.05;;;9.60;;
67902;SDS011;54708;43.612;1.568;2023-02-15T07:45:30;13.13;;;9.00;;
67902;SDS011;54708;43.612;1.568;2023-02-15T07:47:56;13.38;;;9.18;;
67902;SDS011;54708;43.612;1.568;2023-02-15T07:50:21;14.00;;;9.75;;
67902;SDS011;54708;43.612;1.568;2023-02-15T07:52:47;13.50;;;9.57;;
67902;SDS011;54708;43.612;1.568;2023-02-15T07:55:12;14.65;;;8.40;;
67902;SDS011;54708;43.612;1.568;2023-02-15T07:57:48;11.70;;;7.68;;
67902;SDS011;54708;43.612;1.568;2023-02-15T08:00:15;19.08;;;8.75;;
67902;SDS011;54708;43.612;1.568;2023-02-15T08:02:42;12.85;;;7.72;;
67902;SDS011;54708;43.612;1.568;2023-02-15T08:05:07;15.68;;;9.20;;
67902;SDS011;54708;43.612;1.568;2023-02-15T08:07:33;10.15;;;7.70;;
67902;SDS011;54708;43.612;1.568;2023-02-15T08:09:58;12.13;;;7.55;;
67902;SDS011;54708;43.612;1.568;2023-02-15T08:12:27;14.65;;;8.50;;
67902;SDS011;54708;43.612;1.568;2023-02-15T08:14:53;18.50;;;9.27;;
67902;SDS011;54708;43.612;1.568;2023-02-15T08:17:18;16.10;;;7.85;;
67902;SDS011;54708;43.612;1.568;2023-02-15T08:19:43;13.73;;;8.45;;
67902;SDS011;54708;43.612;1.568;2023-02-15T08:22:10;19.83;;;7.70;;
67902;SDS011;54708;43.612;1.568;2023-02-15T08:24:37;9.85;;;7.30;;
67902;SDS011;54708;43.612;1.568;2023-02-15T08:27:03;16.70;;;8.23;;
67902;SDS011;54708;43.612;1.568;2023-02-15T08:29:29;10.15;;;7.30;;
67902;SDS011;54708;43.612;1.568;2023-02-15T08:31:56;15.73;;;8.50;;
67902;SDS011;54708;43.612;1.568;2023-02-15T08:34:28;16.45;;;8.68;;
67902;SDS011;54708;43.612;1.568;2023-02-15T08:36:55;13.82;;;6.68;;
67902;SDS011;54708;43.612;1.568;2023-02-15T08:39:21;11.23;;;7.15;;
67902;SDS011;54708;43.612;1.568;2023-02-15T08:41:47;13.07;;;7.18;;
67902;SDS011;54708;43.612;1.568;2023-02-15T08:44:13;11.18;;;6.63;;
67902;SDS011;54708;43.612;1.568;2023-02-15T08:46:41;10.77;;;6.65;;
67902;SDS011;54708;43.612;1.568;2023-02-15T08:49:08;14.52;;;7.10;;
67902;SDS011;54708;43.612;1.568;2023-02-15T08:51:35;12.10;;;7.22;;
67902;SDS011;54708;43.612;1.568;2023-02-15T08:54:03;11.48;;;6.53;;
67902;SDS011;54708;43.612;1.568;2023-02-15T08:56:34;12.70;;;6.47;;
67902;SDS011;54708;43.612;1.568;2023-02-15T08:59:03;13.63;;;7.05;;
67902;SDS011;54708;43.612;1.568;2023-02-15T09:01:30;14.68;;;6.22;;
67902;SDS011;54708;43.612;1.568;2023-02-15T09:03:58;12.32;;;7.00;;
67902;SDS011;54708;43.612;1.568;2023-02-15T09:06:24;10.32;;;6.07;;
67902;SDS011;54708;43.612;1.568;2023-02-15T09:08:50;9.80;;;5.72;;
67902;SDS011;54708;43.612;1.568;2023-02-15T09:11:20;11.35;;;6.63;;
67902;SDS011;54708;43.612;1.568;2023-02-15T09:13:58;12.05;;;6.72;;
67902;SDS011;54708;43.612;1.568;2023-02-15T09:16:28;9.23;;;5.68;;
67902;SDS011;54708;43.612;1.568;2023-02-15T09:18:55;8.27;;;5.80;;
67902;SDS011;54708;43.612;1.568;2023-02-15T09:21:26;8.30;;;5.95;;
67902;SDS011;54708;43.612;1.568;2023-02-15T09:23:54;10.20;;;5.43;;
67902;SDS011;54708;43.612;1.568;2023-02-15T09:26:22;9.05;;;5.75;;
67902;SDS011;54708;43.612;1.568;2023-02-15T09:28:50;6.93;;;5.88;;
67902;SDS011;54708;43.612;1.568;2023-02-15T09:31:18;8.68;;;5.32;;
67902;SDS011;54708;43.612;1.568;2023-02-15T09:33:45;10.00;;;5.65;;
67902;SDS011;54708;43.612;1.568;2023-02-15T09:36:15;10.57;;;5.13;;
67902;SDS011;54708;43.612;1.568;2023-02-15T09:38:45;8.02;;;5.25;;
67902;SDS011;54708;43.612;1.568;2023-02-15T09:43:46;10.65;;;5.60;;
67902;SDS011;54708;43.612;1.568;2023-02-15T09:49:19;8.90;;;6.32;;
67902;SDS011;54708;43.612;1.568;2023-02-15T10:11:08;11.93;;;5.25;;
67902;SDS011;54708;43.612;1.568;2023-02-15T10:14:13;10.27;;;4.70;;
67902;SDS011;54708;43.612;1.568;2023-02-15T10:19:31;8.55;;;4.63;;
67902;SDS011;54708;43.612;1.568;2023-02-15T10:27:12;9.85;;;4.15;;
67902;SDS011;54708;43.612;1.568;2023-02-15T10:30:05;7.43;;;4.45;;
67902;SDS011;54708;43.612;1.568;2023-02-15T10:32:37;10.15;;;5.40;;
67902;SDS011;54708;43.612;1.568;2023-02-15T10:35:25;10.38;;;4.68;;
67902;SDS011;54708;43.612;1.568;2023-02-15T10:43:49;7.05;;;4.82;;
67902;SDS011;54708;43.612;1.568;2023-02-15T10:46:35;7.78;;;5.43;;
67902;SDS011;54708;43.612;1.568;2023-02-15T10:54:33;6.97;;;4.07;;
67902;SDS011;54708;43.612;1.568;2023-02-15T10:57:04;7.22;;;5.03;;
67902;SDS011;54708;43.612;1.568;2023-02-15T10:59:52;6.95;;;4.43;;
67902;SDS011;54708;43.612;1.568;2023-02-15T11:02:37;7.47;;;4.40;;
67902;SDS011;54708;43.612;1.568;2023-02-15T11:08:06;7.13;;;4.43;;
67902;SDS011;54708;43.612;1.568;2023-02-15T11:10:41;13.55;;;4.57;;
67902;SDS011;54708;43.612;1.568;2023-02-15T11:13:09;9.07;;;4.43;;
67902;SDS011;54708;43.612;1.568;2023-02-15T11:15:39;5.95;;;4.18;;
67902;SDS011;54708;43.612;1.568;2023-02-15T11:21:01;5.63;;;4.47;;
67902;SDS011;54708;43.612;1.568;2023-02-15T11:23:43;9.50;;;6.13;;
67902;SDS011;54708;43.612;1.568;2023-02-15T11:26:21;6.53;;;4.68;;
67902;SDS011;54708;43.612;1.568;2023-02-15T11:31:53;9.18;;;4.35;;
67902;SDS011;54708;43.612;1.568;2023-02-15T11:34:37;10.77;;;6.05;;
67902;SDS011;54708;43.612;1.568;2023-02-15T11:37:08;8.60;;;6.05;;
67902;SDS011;54708;43.612;1.568;2023-02-15T11:39:35;16.00;;;5.68;;
67902;SDS011;54708;43.612;1.568;2023-02-15T11:42:10;7.15;;;4.85;;
67902;SDS011;54708;43.612;1.568;2023-02-15T11:44:39;8.13;;;3.78;;
67902;SDS011;54708;43.612;1.568;2023-02-15T11:47:19;9.50;;;4.35;;
67902;SDS011;54708;43.612;1.568;2023-02-15T11:49:44;8.80;;;4.38;;
67902;SDS011;54708;43.612;1.568;2023-02-15T11:52:11;8.52;;;4.30;;
67902;SDS011;54708;43.612;1.568;2023-02-15T11:54:42;8.55;;;4.20;;
67902;SDS011;54708;43.612;1.568;2023-02-15T11:57:23;14.20;;;4.20;;
67902;SDS011;54708;43.612;1.568;2023-02-15T12:00:02;13.15;;;4.53;;
67902;SDS011;54708;43.612;1.568;2023-02-15T12:02:32;4.35;;;3.75;;
67902;SDS011;54708;43.612;1.568;2023-02-15T12:04:59;5.63;;;3.17;;
67902;SDS011;54708;43.612;1.568;2023-02-15T12:07:28;4.22;;;3.22;;
67902;SDS011;54708;43.612;1.568;2023-02-15T12:13:13;6.38;;;3.20;;
67902;SDS011;54708;43.612;1.568;2023-02-15T12:16:04;8.40;;;4.00;;
67902;SDS011;54708;43.612;1.568;2023-02-15T12:21:00;6.55;;;3.95;;
67902;SDS011;54708;43.612;1.568;2023-02-15T12:23:29;7.40;;;3.35;;
67902;SDS011;54708;43.612;1.568;2023-02-15T12:25:56;3.38;;;3.08;;
67902;SDS011;54708;43.612;1.568;2023-02-15T12:28:24;6.25;;;3.90;;
67902;SDS011;54708;43.612;1.568;2023-02-15T12:31:07;9.25;;;6.13;;
67902;SDS011;54708;43.612;1.568;2023-02-15T12:33:41;3.60;;;3.30;;
67902;SDS011;54708;43.612;1.568;2023-02-15T12:36:12;7.45;;;3.63;;
67902;SDS011;54708;43.612;1.568;2023-02-15T12:38:42;4.47;;;3.28;;
67902;SDS011;54708;43.612;1.568;2023-02-15T12:41:24;5.80;;;3.45;;
67902;SDS011;54708;43.612;1.568;2023-02-15T12:44:04;7.38;;;3.90;;
67902;SDS011;54708;43.612;1.568;2023-02-15T12:46:29;7.72;;;3.58;;
67902;SDS011;54708;43.612;1.568;2023-02-15T12:49:05;9.23;;;4.18;;
67902;SDS011;54708;43.612;1.568;2023-02-15T12:51:41;5.60;;;3.75;;
67902;SDS011;54708;43.612;1.568;2023-02-15T12:56:54;6.28;;;3.13;;
67902;SDS011;54708;43.612;1.568;2023-02-15T12:59:22;3.85;;;2.92;;
67902;SDS011;54708;43.612;1.568;2023-02-15T13:01:47;4.20;;;3.05;;
67902;SDS011;54708;43.612;1.568;2023-02-15T13:04:21;10.57;;;2.47;;
67902;SDS011;54708;43.612;1.568;2023-02-15T13:06:49;10.65;;;3.83;;
67902;SDS011;54708;43.612;1.568;2023-02-15T13:09:35;4.65;;;3.20;;
67902;SDS011;54708;43.612;1.568;2023-02-15T13:14:47;6.43;;;2.72;;
67902;SDS011;54708;43.612;1.568;2023-02-15T13:17:16;2.67;;;2.47;;
67902;SDS011;54708;43.612;1.568;2023-02-15T13:19:47;5.57;;;2.75;;
67902;SDS011;54708;43.612;1.568;2023-02-15T13:22:20;4.40;;;2.63;;
67902;SDS011;54708;43.612;1.568;2023-02-15T13:25:12;6.78;;;2.95;;
67902;SDS011;54708;43.612;1.568;2023-02-15T13:30:40;5.18;;;3.05;;
67902;SDS011;54708;43.612;1.568;2023-02-15T13:33:11;3.25;;;2.65;;
67902;SDS011;54708;43.612;1.568;2023-02-15T13:35:44;7.68;;;3.03;;
67902;SDS011;54708;43.612;1.568;2023-02-15T13:41:08;6.75;;;2.67;;
67902;SDS011;54708;43.612;1.568;2023-02-15T13:43:44;4.47;;;3.25;;
67902;SDS011;54708;43.612;1.568;2023-02-15T14:01:56;13.52;;;5.53;;
67902;SDS011;54708;43.612;1.568;2023-02-15T14:07:24;5.80;;;4.15;;
67902;SDS011;54708;43.612;1.568;2023-02-15T14:15:49;6.78;;;4.32;;
67902;SDS011;54708;43.612;1.568;2023-02-15T14:32:15;7.30;;;4.55;;
67902;SDS011;54708;43.612;1.568;2023-02-15T14:35:01;7.25;;;4.80;;
67902;SDS011;54708;43.612;1.568;2023-02-15T14:46:10;3.25;;;2.95;;
67902;SDS011;54708;43.612;1.568;2023-02-15T14:48:44;7.45;;;3.00;;
67902;SDS011;54708;43.612;1.568;2023-02-15T14:51:25;6.95;;;3.08;;
67902;SDS011;54708;43.612;1.568;2023-02-15T14:54:07;5.38;;;2.85;;
67902;SDS011;54708;43.612;1.568;2023-02-15T14:56:33;12.48;;;4.10;;
67902;SDS011;54708;43.612;1.568;2023-02-15T14:59:21;6.20;;;3.17;;
67902;SDS011;54708;43.612;1.568;2023-02-15T15:01:51;6.05;;;2.83;;
67902;SDS011;54708;43.612;1.568;2023-02-15T15:04:31;5.88;;;3.70;;
67902;SDS011;54708;43.612;1.568;2023-02-15T15:07:00;6.30;;;3.08;;
67902;SDS011;54708;43.612;1.568;2023-02-15T15:09:29;5.05;;;2.53;;
67902;SDS011;54708;43.612;1.568;2023-02-15T15:14:46;5.20;;;2.88;;
67902;SDS011;54708;43.612;1.568;2023-02-15T15:17:13;4.35;;;2.92;;
67902;SDS011;54708;43.612;1.568;2023-02-15T15:25:57;5.10;;;3.75;;
67902;SDS011;54708;43.612;1.568;2023-02-15T15:36:36;8.55;;;5.38;;
67902;SDS011;54708;43.612;1.568;2023-02-15T15:50:23;9.77;;;5.22;;
67902;SDS011;54708;43.612;1.568;2023-02-15T15:52:50;12.32;;;7.45;;
67902;SDS011;54708;43.612;1.568;2023-02-15T15:55:19;7.28;;;5.22;;
67902;SDS011;54708;43.612;1.568;2023-02-15T15:57:48;10.43;;;7.07;;
67902;SDS011;54708;43.612;1.568;2023-02-15T16:03:05;11.13;;;6.75;;
67902;SDS011;54708;43.612;1.568;2023-02-15T16:05:41;10.23;;;5.00;;
67902;SDS011;54708;43.612;1.568;2023-02-15T16:08:07;16.75;;;8.25;;
67902;SDS011;54708;43.612;1.568;2023-02-15T16:10:32;23.52;;;13.38;;
67902;SDS011;54708;43.612;1.568;2023-02-15T16:12:59;19.80;;;12.52;;
67902;SDS011;54708;43.612;1.568;2023-02-15T16:15:27;13.65;;;7.85;;
67902;SDS011;54708;43.612;1.568;2023-02-15T16:17:58;14.00;;;8.13;;
67902;SDS011;54708;43.612;1.568;2023-02-15T16:20:26;11.70;;;7.60;;
67902;SDS011;54708;43.612;1.568;2023-02-15T16:23:01;16.27;;;9.68;;
67902;SDS011;54708;43.612;1.568;2023-02-15T16:25:42;9.82;;;7.03;;
67902;SDS011;54708;43.612;1.568;2023-02-15T16:28:14;10.15;;;5.13;;
67902;SDS011;54708;43.612;1.568;2023-02-15T16:30:39;9.77;;;5.53;;
67902;SDS011;54708;43.612;1.568;2023-02-15T16:33:13;6.90;;;5.13;;
67902;SDS011;54708;43.612;1.568;2023-02-15T16:36:01;13.57;;;8.60;;
67902;SDS011;54708;43.612;1.568;2023-02-15T16:41:17;8.07;;;4.88;;
67902;SDS011;54708;43.612;1.568;2023-02-15T16:43:50;9.52;;;4.00;;
67902;SDS011;54708;43.612;1.568;2023-02-15T16:46:16;6.72;;;4.95;;
67902;SDS011;54708;43.612;1.568;2023-02-15T16:48:49;8.65;;;4.10;;
67902;SDS011;54708;43.612;1.568;2023-02-15T16:51:21;8.60;;;4.47;;
67902;SDS011;54708;43.612;1.568;2023-02-15T16:53:48;7.57;;;5.43;;
67902;SDS011;54708;43.612;1.568;2023-02-15T16:56:14;9.85;;;5.40;;
67902;SDS011;54708;43.612;1.568;2023-02-15T16:58:41;9.32;;;6.50;;
67902;SDS011;54708;43.612;1.568;2023-02-15T17:01:08;16.65;;;8.27;;
67902;SDS011;54708;43.612;1.568;2023-02-15T17:03:35;22.25;;;10.70;;
67902;SDS011;54708;43.612;1.568;2023-02-15T17:06:01;19.25;;;10.75;;
67902;SDS011;54708;43.612;1.568;2023-02-15T17:08:43;15.30;;;8.40;;
67902;SDS011;54708;43.612;1.568;2023-02-15T17:11:16;15.93;;;8.25;;
67902;SDS011;54708;43.612;1.568;2023-02-15T17:16:35;14.05;;;7.53;;
67902;SDS011;54708;43.612;1.568;2023-02-15T17:19:31;17.20;;;8.05;;
67902;SDS011;54708;43.612;1.568;2023-02-15T17:22:01;10.70;;;7.13;;
67902;SDS011;54708;43.612;1.568;2023-02-15T17:27:18;13.85;;;6.82;;
67902;SDS011;54708;43.612;1.568;2023-02-15T17:30:30;10.82;;;6.75;;
67902;SDS011;54708;43.612;1.568;2023-02-15T17:32:51;11.18;;;5.95;;
67902;SDS011;54708;43.612;1.568;2023-02-15T17:35:19;11.88;;;5.55;;
67902;SDS011;54708;43.612;1.568;2023-02-15T17:37:49;8.82;;;5.22;;
67902;SDS011;54708;43.612;1.568;2023-02-15T17:40:25;8.65;;;5.45;;
67902;SDS011;54708;43.612;1.568;2023-02-15T17:42:55;9.52;;;5.30;;
67902;SDS011;54708;43.612;1.568;2023-02-15T17:45:20;7.30;;;5.50;;
67902;SDS011;54708;43.612;1.568;2023-02-15T17:47:47;12.77;;;6.70;;
67902;SDS011;54708;43.612;1.568;2023-02-15T17:50:21;12.77;;;5.68;;
67902;SDS011;54708;43.612;1.568;2023-02-15T17:52:48;10.95;;;8.15;;
67902;SDS011;54708;43.612;1.568;2023-02-15T17:55:15;7.50;;;5.07;;
67902;SDS011;54708;43.612;1.568;2023-02-15T17:58:01;11.55;;;7.63;;
67902;SDS011;54708;43.612;1.568;2023-02-15T18:00:29;10.98;;;6.38;;
67902;SDS011;54708;43.612;1.568;2023-02-15T18:03:13;9.75;;;6.70;;
67902;SDS011;54708;43.612;1.568;2023-02-15T18:05:57;10.60;;;6.90;;
67902;SDS011;54708;43.612;1.568;2023-02-15T18:08:42;12.48;;;6.10;;
67902;SDS011;54708;43.612;1.568;2023-02-15T18:11:26;7.05;;;5.28;;